createdAt,value
2017-10-20T00:00:54.653Z,19.2
2017-10-20T00:01:56.709Z,19.2
2017-10-20T00:02:58.312Z,19.2
2017-10-20T00:04:00.380Z,19.2
2017-10-20T00:05:02.885Z,19.1
2017-10-20T00:06:04.347Z,19.1
2017-10-20T00:07:06.370Z,19.2
2017-10-20T00:08:08.460Z,19.1
2017-10-20T00:09:09.907Z,19.1
2017-10-20T00:10:12.855Z,19.1
2017-10-20T00:11:14.915Z,19.2
2017-10-20T00:12:16.877Z,19.2
2017-10-20T00:13:19.512Z,19.2
2017-10-20T00:14:21.670Z,19.2
2017-10-20T00:15:23.869Z,19.2
2017-10-20T00:16:25.872Z,19.2
2017-10-20T00:17:28.172Z,19.3
2017-10-20T00:18:29.573Z,19.2
2017-10-20T00:19:31.053Z,19.3
2017-10-20T00:20:33.395Z,19.2
2017-10-20T00:21:35.206Z,19.3
2017-10-20T00:22:36.610Z,19.4
2017-10-20T00:23:38.713Z,19.3
2017-10-20T00:24:40.211Z,19.3
2017-10-20T00:25:42.410Z,19.3
2017-10-20T00:26:44.270Z,19.3
2017-10-20T00:27:45.900Z,19.3
2017-10-20T00:28:48.355Z,19.2
2017-10-20T00:29:50.118Z,19.2
2017-10-20T00:30:52.313Z,19.2
2017-10-20T00:31:55.216Z,19.3
2017-10-20T00:32:56.609Z,19.2
2017-10-20T00:33:58.115Z,19.2
2017-10-20T00:34:59.670Z,19.2
2017-10-20T00:36:01.686Z,19.2
2017-10-20T00:37:04.254Z,19.2
2017-10-20T00:38:06.317Z,19.2
2017-10-20T00:39:08.494Z,19.2
2017-10-20T00:40:10.747Z,19.3
2017-10-20T00:41:12.657Z,19.2
2017-10-20T00:42:14.752Z,19.2
2017-10-20T00:43:16.243Z,19.3
2017-10-20T00:44:18.637Z,19.3
2017-10-20T00:45:20.115Z,19.2
2017-10-20T00:46:21.589Z,19.3
2017-10-20T00:47:23.056Z,19.3
2017-10-20T00:48:24.640Z,19.3
2017-10-20T00:49:26.524Z,19.2
2017-10-20T00:50:28.270Z,19.3
2017-10-20T00:51:29.723Z,19.4
2017-10-20T00:52:31.142Z,19.4
2017-10-20T00:53:32.635Z,19.4
2017-10-20T00:54:34.230Z,19.4
2017-10-20T00:55:35.722Z,19.4
2017-10-20T00:56:37.151Z,19.4
2017-10-20T00:57:38.665Z,19.5
2017-10-20T00:58:40.109Z,19.5
2017-10-20T00:59:41.536Z,19.5
2017-10-20T01:00:43.033Z,19.4
2017-10-20T01:01:44.436Z,19.4
2017-10-20T01:02:46.340Z,19.4
2017-10-20T01:03:48.689Z,19.4
2017-10-20T01:04:50.159Z,19.4
2017-10-20T01:05:51.903Z,19.5
2017-10-20T01:06:53.457Z,19.4
2017-10-20T01:07:54.954Z,19.4
2017-10-20T01:08:57.184Z,19.3
2017-10-20T01:09:59.119Z,19.4
2017-10-20T01:11:00.638Z,19.4
2017-10-20T01:12:02.997Z,19.4
2017-10-20T01:13:04.633Z,19.4
2017-10-20T01:14:06.064Z,19.4
2017-10-20T01:15:08.239Z,19.4
2017-10-20T01:16:10.835Z,19.5
2017-10-20T01:17:12.965Z,19.5
2017-10-20T01:18:14.809Z,19.5
2017-10-20T01:19:16.593Z,19.5
2017-10-20T01:20:18.245Z,19.5
2017-10-20T01:21:19.671Z,19.6
2017-10-20T01:22:21.149Z,19.6
2017-10-20T01:23:22.625Z,19.6
2017-10-20T01:24:24.086Z,19.5
2017-10-20T01:25:25.503Z,19.6
2017-10-20T01:26:27.474Z,19.5
2017-10-20T01:27:29.298Z,19.5
2017-10-20T01:28:31.819Z,19.5
2017-10-20T01:29:33.551Z,19.5
2017-10-20T01:30:35.355Z,19.5
2017-10-20T01:31:37.308Z,19.5
2017-10-20T01:32:38.741Z,19.5
2017-10-20T01:33:40.337Z,19.5
2017-10-20T01:34:42.388Z,19.5
2017-10-20T01:35:44.224Z,19.4
2017-10-20T01:36:47.330Z,19.5
2017-10-20T01:37:49.151Z,19.5
2017-10-20T01:38:51.433Z,19.5
2017-10-20T01:39:52.943Z,19.5
2017-10-20T01:40:54.569Z,19.5
2017-10-20T01:41:56.229Z,19.5
2017-10-20T01:42:57.735Z,19.6
2017-10-20T01:43:59.216Z,19.6
2017-10-20T01:45:00.646Z,19.6
2017-10-20T01:46:02.716Z,19.6
2017-10-20T01:47:04.985Z,19.5
2017-10-20T01:48:06.994Z,19.5
2017-10-20T01:49:08.922Z,19.4
2017-10-20T01:50:10.869Z,19.5
2017-10-20T01:51:12.702Z,19.5
2017-10-20T01:52:14.405Z,19.4
2017-10-20T01:53:15.876Z,19.4
2017-10-20T01:54:17.255Z,19.3
2017-10-20T01:55:19.371Z,19.4
2017-10-20T01:56:20.817Z,19.4
2017-10-20T01:57:22.505Z,19.3
2017-10-20T01:58:24.390Z,19.2
2017-10-20T01:59:26.782Z,19.2
2017-10-20T02:00:29.132Z,19.2
2017-10-20T02:01:30.557Z,19.2
2017-10-20T02:02:32.949Z,19.2
2017-10-20T02:03:35.174Z,19.2
2017-10-20T02:04:37.116Z,19.2
2017-10-20T02:05:39.412Z,19.1
2017-10-20T02:06:42.046Z,19.1
2017-10-20T02:07:44.096Z,19.1
2017-10-20T02:08:46.212Z,19.0
2017-10-20T02:09:47.640Z,19.1
2017-10-20T02:10:49.107Z,19.0
2017-10-20T02:11:50.609Z,19.0
2017-10-20T02:12:52.855Z,18.9
2017-10-20T02:13:55.203Z,19.0
2017-10-20T02:14:56.614Z,19.1
2017-10-20T02:15:58.029Z,19.1
2017-10-20T02:16:59.922Z,19.0
2017-10-20T02:18:02.196Z,19.0
2017-10-20T02:19:03.682Z,19.0
2017-10-20T02:20:05.085Z,19.0
2017-10-20T02:21:06.519Z,19.1
2017-10-20T02:22:07.926Z,19.0
2017-10-20T02:23:10.236Z,19.1
2017-10-20T02:24:12.766Z,19.0
2017-10-20T02:25:14.256Z,19.0
2017-10-20T02:26:16.647Z,19.1
2017-10-20T02:27:18.038Z,19.0
2017-10-20T02:28:19.514Z,19.1
2017-10-20T02:29:20.956Z,19.1
2017-10-20T02:30:22.542Z,19.1
2017-10-20T02:31:24.351Z,19.1
2017-10-20T02:32:25.764Z,19.1
2017-10-20T02:33:27.231Z,19.1
2017-10-20T02:34:29.418Z,19.1
2017-10-20T02:35:31.534Z,19.2
2017-10-20T02:36:33.761Z,19.1
2017-10-20T02:37:35.368Z,19.2
2017-10-20T02:38:37.517Z,19.1
2017-10-20T02:39:39.600Z,19.1
2017-10-20T02:40:41.060Z,19.1
2017-10-20T02:41:42.547Z,19.2
2017-10-20T02:42:44.253Z,19.1
2017-10-20T02:43:46.527Z,19.2
2017-10-20T02:44:48.885Z,19.1
2017-10-20T02:45:50.818Z,19.1
2017-10-20T02:46:53.141Z,19.1
2017-10-20T02:47:55.692Z,19.0
2017-10-20T02:48:56.966Z,19.0
2017-10-20T02:49:58.654Z,19.0
2017-10-20T02:51:00.965Z,19.0
2017-10-20T02:52:02.978Z,19.0
2017-10-20T02:53:04.486Z,19.0
2017-10-20T02:54:06.489Z,19.0
2017-10-20T02:55:07.936Z,18.9
2017-10-20T02:56:10.288Z,19.0
2017-10-20T02:57:12.977Z,18.9
2017-10-20T02:58:14.675Z,18.9
2017-10-20T02:59:16.775Z,18.9
2017-10-20T03:00:19.043Z,19.0
2017-10-20T03:01:21.964Z,19.0
2017-10-20T03:02:23.737Z,19.0
2017-10-20T03:03:26.285Z,19.0
2017-10-20T03:04:27.982Z,19.0
2017-10-20T03:05:29.518Z,19.0
2017-10-20T03:06:31.306Z,19.1
2017-10-20T03:07:32.673Z,19.0
2017-10-20T03:08:34.094Z,19.0
2017-10-20T03:09:36.115Z,19.0
2017-10-20T03:10:38.262Z,19.0
2017-10-20T03:11:40.142Z,19.0
2017-10-20T03:12:41.604Z,18.9
2017-10-20T03:13:43.021Z,19.0
2017-10-20T03:14:44.479Z,18.9
2017-10-20T03:15:46.589Z,18.9
2017-10-20T03:16:48.910Z,18.9
2017-10-20T03:17:50.957Z,19.0
2017-10-20T03:18:53.152Z,18.9
2017-10-20T03:19:55.282Z,18.9
2017-10-20T03:20:56.701Z,18.9
2017-10-20T03:21:58.620Z,18.8
2017-10-20T03:23:00.137Z,18.8
2017-10-20T03:24:02.464Z,18.9
2017-10-20T03:25:03.874Z,18.9
2017-10-20T03:26:05.950Z,18.9
2017-10-20T03:27:07.256Z,18.9
2017-10-20T03:28:09.404Z,18.9
2017-10-20T03:29:11.476Z,18.9
2017-10-20T03:30:13.647Z,19.0
2017-10-20T03:31:15.636Z,19.0
2017-10-20T03:32:17.626Z,18.9
2017-10-20T03:33:19.478Z,19.0
2017-10-20T03:34:21.594Z,19.0
2017-10-20T03:35:23.043Z,18.9
2017-10-20T03:36:24.520Z,18.9
2017-10-20T03:37:25.950Z,18.9
2017-10-20T03:38:27.930Z,18.9
2017-10-20T03:39:30.131Z,18.9
2017-10-20T03:40:33.743Z,18.9
2017-10-20T03:41:35.793Z,18.8
2017-10-20T03:42:37.986Z,18.8
2017-10-20T03:43:39.777Z,18.8
2017-10-20T03:44:41.722Z,18.8
2017-10-20T03:45:43.959Z,18.8
2017-10-20T03:46:45.390Z,18.8
2017-10-20T03:47:47.011Z,18.8
2017-10-20T03:48:49.428Z,18.8
2017-10-20T03:49:51.633Z,18.7
2017-10-20T03:50:53.134Z,18.8
2017-10-20T03:51:54.551Z,18.7
2017-10-20T03:52:55.970Z,18.7
2017-10-20T03:53:57.479Z,18.7
2017-10-20T03:54:59.055Z,18.7
2017-10-20T03:56:00.826Z,18.6
2017-10-20T03:57:03.176Z,18.6
2017-10-20T03:58:05.300Z,18.6
2017-10-20T03:59:07.173Z,18.6
2017-10-20T04:00:08.596Z,18.5
2017-10-20T04:01:10.076Z,18.5
2017-10-20T04:02:11.511Z,18.6
2017-10-20T04:03:13.044Z,18.7
2017-10-20T04:04:14.519Z,18.6
2017-10-20T04:05:17.337Z,18.6
2017-10-20T04:06:19.559Z,18.6
2017-10-20T04:07:20.997Z,18.6
2017-10-20T04:08:23.205Z,18.7
2017-10-20T04:09:25.963Z,18.6
2017-10-20T04:10:27.873Z,18.7
2017-10-20T04:11:30.407Z,18.7
2017-10-20T04:12:31.903Z,18.7
2017-10-20T04:13:34.352Z,18.5
2017-10-20T04:14:36.402Z,18.6
2017-10-20T04:15:37.899Z,18.5
2017-10-20T04:16:39.396Z,18.6
2017-10-20T04:17:41.182Z,18.6
2017-10-20T04:18:43.094Z,18.6
2017-10-20T04:19:44.943Z,18.5
2017-10-20T04:20:47.134Z,18.5
2017-10-20T04:21:48.911Z,18.7
2017-10-20T04:22:50.360Z,18.6
2017-10-20T04:23:52.087Z,18.7
2017-10-20T04:24:55.034Z,18.7
2017-10-20T04:25:56.818Z,18.7
2017-10-20T04:26:58.614Z,18.7
2017-10-20T04:28:00.433Z,18.7
2017-10-20T04:29:03.054Z,18.7
2017-10-20T04:30:05.381Z,18.8
2017-10-20T04:31:06.997Z,18.8
2017-10-20T04:32:08.500Z,18.8
2017-10-20T04:33:10.084Z,18.8
2017-10-20T04:34:12.064Z,18.8
2017-10-20T04:35:14.433Z,18.8
2017-10-20T04:36:16.480Z,18.8
2017-10-20T04:37:18.438Z,18.8
2017-10-20T04:38:20.360Z,18.7
2017-10-20T04:39:21.852Z,18.8
2017-10-20T04:40:23.750Z,18.8
2017-10-20T04:41:25.838Z,18.9
2017-10-20T04:42:27.250Z,18.9
2017-10-20T04:43:28.707Z,18.9
2017-10-20T04:44:30.155Z,18.9
2017-10-20T04:45:31.877Z,19.0
2017-10-20T04:46:34.001Z,19.0
2017-10-20T04:47:35.903Z,19.0
2017-10-20T04:48:37.794Z,19.0
2017-10-20T04:49:40.028Z,19.1
2017-10-20T04:50:42.142Z,19.1
2017-10-20T04:51:44.104Z,19.0
2017-10-20T04:52:45.989Z,19.0
2017-10-20T04:53:48.143Z,19.0
2017-10-20T04:54:50.150Z,19.1
2017-10-20T04:55:53.367Z,19.1
2017-10-20T04:56:55.336Z,19.2
2017-10-20T04:57:57.463Z,19.2
2017-10-20T04:58:58.912Z,19.2
2017-10-20T05:00:00.311Z,19.2
2017-10-20T05:01:02.041Z,19.3
2017-10-20T05:02:03.997Z,19.3
2017-10-20T05:03:06.019Z,19.2
2017-10-20T05:04:07.434Z,19.3
2017-10-20T05:05:09.072Z,19.3
2017-10-20T05:06:10.483Z,19.3
2017-10-20T05:07:11.940Z,19.3
2017-10-20T05:08:13.938Z,19.4
2017-10-20T05:09:15.628Z,19.3
2017-10-20T05:10:17.767Z,19.4
2017-10-20T05:11:19.283Z,19.4
2017-10-20T05:12:20.698Z,19.4
2017-10-20T05:13:22.173Z,19.4
2017-10-20T05:14:23.595Z,19.4
2017-10-20T05:15:25.500Z,19.4
2017-10-20T05:16:27.338Z,19.5
2017-10-20T05:17:28.727Z,19.6
2017-10-20T05:18:30.172Z,19.7
2017-10-20T05:19:31.563Z,19.7
2017-10-20T05:20:33.200Z,19.6
2017-10-20T05:21:34.968Z,19.7
2017-10-20T05:22:36.392Z,19.6
2017-10-20T05:23:38.137Z,19.7
2017-10-20T05:24:39.640Z,19.7
2017-10-20T05:25:41.138Z,19.7
2017-10-20T05:26:43.849Z,19.6
2017-10-20T05:27:45.261Z,19.6
2017-10-20T05:28:46.979Z,19.6
2017-10-20T05:29:49.925Z,19.5
2017-10-20T05:30:51.234Z,19.6
2017-10-20T05:31:52.737Z,19.4
2017-10-20T05:32:54.369Z,19.3
2017-10-20T05:33:56.548Z,19.2
2017-10-20T05:34:58.003Z,19.2
2017-10-20T05:36:01.161Z,19.2
2017-10-20T05:37:03.258Z,19.2
2017-10-20T05:38:04.725Z,19.2
2017-10-20T05:39:06.122Z,19.1
2017-10-20T05:40:07.546Z,19.1
2017-10-20T05:41:09.052Z,19.1
2017-10-20T05:42:10.511Z,19.1
2017-10-20T05:43:12.147Z,19.0
2017-10-20T05:44:14.261Z,18.9
2017-10-20T05:45:15.828Z,18.8
2017-10-20T05:46:17.239Z,18.8
2017-10-20T05:47:18.627Z,18.7
2017-10-20T05:48:20.108Z,18.6
2017-10-20T05:49:21.750Z,18.6
2017-10-20T05:50:23.187Z,18.5
2017-10-20T05:51:24.610Z,18.5
2017-10-20T05:52:26.013Z,18.3
2017-10-20T05:53:27.405Z,18.4
2017-10-20T05:54:28.791Z,18.3
2017-10-20T05:55:30.206Z,18.3
2017-10-20T05:56:31.581Z,18.2
2017-10-20T05:57:32.960Z,18.2
2017-10-20T05:58:34.553Z,18.1
2017-10-20T05:59:36.035Z,18.1
2017-10-20T06:00:37.436Z,18.1
2017-10-20T06:01:38.812Z,18.0
2017-10-20T06:02:40.204Z,18.0
2017-10-20T06:03:41.609Z,18.0
2017-10-20T06:04:42.983Z,17.9
2017-10-20T06:05:44.416Z,17.9
2017-10-20T06:06:45.803Z,17.9
2017-10-20T06:07:47.178Z,17.9
2017-10-20T06:08:48.563Z,17.9
2017-10-20T06:09:50.010Z,17.8
2017-10-20T06:10:51.402Z,17.9
2017-10-20T06:11:52.826Z,17.9
2017-10-20T06:12:54.252Z,17.9
2017-10-20T06:13:55.664Z,17.9
2017-10-20T06:14:57.216Z,17.9
2017-10-20T06:15:58.587Z,18.0
2017-10-20T06:16:59.994Z,18.0
2017-10-20T06:18:01.413Z,18.0
2017-10-20T06:19:02.851Z,17.8
2017-10-20T06:20:04.234Z,17.8
2017-10-20T06:21:05.677Z,17.8
2017-10-20T06:22:07.103Z,17.8
2017-10-20T06:23:08.490Z,17.8
2017-10-20T06:24:09.970Z,18.0
2017-10-20T06:25:11.349Z,17.9
2017-10-20T06:26:12.784Z,17.8
2017-10-20T06:27:14.167Z,17.9
2017-10-20T06:28:15.596Z,17.9
2017-10-20T06:29:17.051Z,17.8
2017-10-20T06:30:18.476Z,17.8
2017-10-20T06:31:19.917Z,17.8
2017-10-20T06:32:21.373Z,17.8
2017-10-20T06:33:22.737Z,17.9
2017-10-20T06:34:24.131Z,17.8
2017-10-20T06:35:25.530Z,17.8
2017-10-20T06:36:27.203Z,17.8
2017-10-20T06:37:28.617Z,17.7
2017-10-20T06:38:30.016Z,17.6
2017-10-20T06:39:31.413Z,17.6
2017-10-20T06:40:32.791Z,17.6
2017-10-20T06:41:34.199Z,17.5
2017-10-20T06:42:35.585Z,17.5
2017-10-20T06:43:36.974Z,17.4
2017-10-20T06:44:38.359Z,17.2
2017-10-20T06:45:39.749Z,17.3
2017-10-20T06:46:41.134Z,17.2
2017-10-20T06:47:42.514Z,16.9
2017-10-20T06:48:43.889Z,16.8
2017-10-20T06:49:45.268Z,16.7
2017-10-20T06:50:46.646Z,16.7
2017-10-20T06:51:48.024Z,16.6
2017-10-20T06:52:49.396Z,16.4
2017-10-20T06:53:50.766Z,16.4
2017-10-20T06:54:52.140Z,16.3
2017-10-20T06:55:53.514Z,16.3
2017-10-20T06:56:54.899Z,16.2
2017-10-20T06:57:56.275Z,16.1
2017-10-20T06:58:57.652Z,16.0
2017-10-20T06:59:59.025Z,16.1
2017-10-20T07:01:00.397Z,16.0
2017-10-20T07:02:01.773Z,16.0
2017-10-20T07:03:03.147Z,16.0
2017-10-20T07:04:04.519Z,16.0
2017-10-20T07:05:05.895Z,16.0
2017-10-20T07:06:07.277Z,15.9
2017-10-20T07:07:08.641Z,16.0
2017-10-20T07:08:10.026Z,15.9
2017-10-20T07:09:11.386Z,15.9
2017-10-20T07:10:12.765Z,15.8
2017-10-20T07:11:14.137Z,15.8
2017-10-20T07:12:15.515Z,15.8
2017-10-20T07:13:16.889Z,15.7
2017-10-20T07:14:18.264Z,15.7
2017-10-20T07:15:19.639Z,15.7
2017-10-20T07:16:21.015Z,15.7
2017-10-20T07:17:22.395Z,15.7
2017-10-20T07:18:23.769Z,15.6
2017-10-20T07:19:25.143Z,15.7
2017-10-20T07:20:26.518Z,15.6
2017-10-20T07:21:27.893Z,15.7
2017-10-20T07:22:29.265Z,15.7
2017-10-20T07:23:30.646Z,15.7
2017-10-20T07:24:32.025Z,15.7
2017-10-20T07:25:33.403Z,15.7
2017-10-20T07:26:34.782Z,15.6
2017-10-20T07:27:36.169Z,15.7
2017-10-20T07:28:37.539Z,15.6
2017-10-20T07:29:38.917Z,15.8
2017-10-20T07:30:40.319Z,15.7
2017-10-20T07:31:41.699Z,15.8
2017-10-20T07:32:43.068Z,15.7
2017-10-20T07:33:44.460Z,15.7
2017-10-20T07:34:45.843Z,15.8
2017-10-20T07:35:47.218Z,15.8
2017-10-20T07:36:48.602Z,15.8
2017-10-20T07:37:49.975Z,15.8
2017-10-20T07:38:51.345Z,15.8
2017-10-20T07:39:52.786Z,15.8
2017-10-20T07:40:54.160Z,15.9
2017-10-20T07:41:55.544Z,16.0
2017-10-20T07:42:56.931Z,16.0
2017-10-20T07:43:58.312Z,15.9
2017-10-20T07:44:59.716Z,16.0
2017-10-20T07:46:01.090Z,15.9
2017-10-20T07:47:02.535Z,16.0
2017-10-20T07:48:03.903Z,16.1
2017-10-20T07:49:05.327Z,16.0
2017-10-20T07:50:06.732Z,16.1
2017-10-20T07:51:08.120Z,16.1
2017-10-20T07:52:09.517Z,16.1
2017-10-20T07:53:10.989Z,16.1
2017-10-20T07:54:12.377Z,16.1
2017-10-20T07:55:13.770Z,16.2
2017-10-20T07:56:15.218Z,16.1
2017-10-20T07:57:16.593Z,16.2
2017-10-20T07:58:18.063Z,16.3
2017-10-20T07:59:19.464Z,16.3
2017-10-20T08:00:20.841Z,16.3
2017-10-20T08:01:22.302Z,16.3
2017-10-20T08:02:23.681Z,16.4
2017-10-20T08:03:25.212Z,16.4
2017-10-20T08:04:26.619Z,16.4
2017-10-20T08:05:27.992Z,16.4
2017-10-20T08:06:29.459Z,16.5
2017-10-20T08:07:30.831Z,16.5
2017-10-20T08:08:32.240Z,16.6
2017-10-20T08:09:33.651Z,16.6
2017-10-20T08:10:35.062Z,16.6
2017-10-20T08:11:36.453Z,16.6
2017-10-20T08:12:38.200Z,16.6
2017-10-20T08:13:40.316Z,16.7
2017-10-20T08:14:41.681Z,16.7
2017-10-20T08:15:43.205Z,16.8
2017-10-20T08:16:44.666Z,16.8
2017-10-20T08:17:46.045Z,16.8
2017-10-20T08:18:47.455Z,16.9
2017-10-20T08:19:48.897Z,16.9
2017-10-20T08:20:50.361Z,16.9
2017-10-20T08:21:51.797Z,16.8
2017-10-20T08:22:53.212Z,17.0
2017-10-20T08:23:54.708Z,17.0
2017-10-20T08:24:56.106Z,17.0
2017-10-20T08:25:57.730Z,17.0
2017-10-20T08:26:59.146Z,17.2
2017-10-20T08:28:00.576Z,17.4
2017-10-20T08:29:01.980Z,17.7
2017-10-20T08:30:03.408Z,18.1
2017-10-20T08:31:04.888Z,18.7
2017-10-20T08:32:06.283Z,19.3
2017-10-20T08:33:07.751Z,19.4
2017-10-20T08:34:09.208Z,19.1
2017-10-20T08:35:10.581Z,19.0
2017-10-20T08:36:11.978Z,19.4
2017-10-20T08:37:13.529Z,19.3
2017-10-20T08:38:15.110Z,19.0
2017-10-20T08:39:16.541Z,18.8
2017-10-20T08:40:17.968Z,19.0
2017-10-20T08:41:19.434Z,18.7
2017-10-20T08:42:20.914Z,18.7
2017-10-20T08:43:22.369Z,18.7
2017-10-20T08:44:23.803Z,18.5
2017-10-20T08:45:25.227Z,18.3
2017-10-20T08:46:26.678Z,18.4
2017-10-20T08:47:28.074Z,18.4
2017-10-20T08:48:29.529Z,18.5
2017-10-20T08:49:30.909Z,18.5
2017-10-20T08:50:32.392Z,18.9
2017-10-20T08:51:33.799Z,19.2
2017-10-20T08:52:35.464Z,19.1
2017-10-20T08:53:36.898Z,19.1
2017-10-20T08:54:38.316Z,19.1
2017-10-20T08:55:40.141Z,18.9
2017-10-20T08:56:41.619Z,19.0
2017-10-20T08:57:43.050Z,18.9
2017-10-20T08:58:44.458Z,18.8
2017-10-20T08:59:45.934Z,18.9
2017-10-20T09:00:47.360Z,18.8
2017-10-20T09:01:48.796Z,18.8
2017-10-20T09:02:50.227Z,18.8
2017-10-20T09:03:51.666Z,18.8
2017-10-20T09:04:53.161Z,18.7
2017-10-20T09:05:54.692Z,18.5
2017-10-20T09:06:56.334Z,18.6
2017-10-20T09:08:38.700Z,18.6
2017-10-20T09:09:40.102Z,18.7
2017-10-20T09:10:41.482Z,18.8
2017-10-20T09:11:42.870Z,19.0
2017-10-20T09:12:44.398Z,19.0
2017-10-20T09:13:45.770Z,19.2
2017-10-20T09:14:47.801Z,19.2
2017-10-20T09:15:49.183Z,19.2
2017-10-20T09:16:50.707Z,19.4
2017-10-20T09:17:52.306Z,19.4
2017-10-20T09:18:54.039Z,19.4
2017-10-20T09:19:55.809Z,19.4
2017-10-20T09:20:57.299Z,19.3
2017-10-20T09:21:58.698Z,19.4
2017-10-20T09:23:00.210Z,19.4
2017-10-20T09:24:01.677Z,19.3
2017-10-20T09:25:03.326Z,19.3
2017-10-20T09:26:05.050Z,19.2
2017-10-20T09:27:06.741Z,19.2
2017-10-20T09:28:08.502Z,19.3
2017-10-20T09:29:09.993Z,19.2
2017-10-20T09:30:52.620Z,19.1
2017-10-20T09:31:54.005Z,19.0
2017-10-20T09:32:55.394Z,18.9
2017-10-20T09:33:56.777Z,18.9
2017-10-20T09:34:58.156Z,18.8
2017-10-20T09:35:59.697Z,18.8
2017-10-20T09:37:01.518Z,18.8
2017-10-20T09:38:02.899Z,18.6
2017-10-20T09:39:04.285Z,18.5
2017-10-20T09:40:05.686Z,18.5
2017-10-20T09:41:07.183Z,18.5
2017-10-20T09:42:08.570Z,18.4
2017-10-20T09:43:10.060Z,18.3
2017-10-20T09:44:11.561Z,18.1
2017-10-20T09:45:13.109Z,18.1
2017-10-20T09:46:14.547Z,18.0
2017-10-20T09:47:16.105Z,18.1
2017-10-20T09:48:17.749Z,18.1
2017-10-20T09:49:19.716Z,18.0
2017-10-20T09:50:21.140Z,18.0
2017-10-20T09:51:22.662Z,18.1
2017-10-20T09:52:24.156Z,18.0
2017-10-20T09:53:25.614Z,18.0
2017-10-20T09:54:27.303Z,18.1
2017-10-20T09:55:28.770Z,18.1
2017-10-20T09:56:30.216Z,18.1
2017-10-20T09:57:31.637Z,18.1
2017-10-20T09:58:33.099Z,18.1
2017-10-20T09:59:34.516Z,18.1
2017-10-20T10:00:35.968Z,18.0
2017-10-20T10:01:37.451Z,18.0
2017-10-20T10:02:39.648Z,18.0
2017-10-20T10:03:41.329Z,17.9
2017-10-20T10:04:42.765Z,17.9
2017-10-20T10:05:44.186Z,17.9
2017-10-20T10:06:45.662Z,17.9
2017-10-20T10:07:47.075Z,17.8
2017-10-20T10:08:48.480Z,17.8
2017-10-20T10:09:49.930Z,17.8
2017-10-20T10:10:51.328Z,17.7
2017-10-20T10:11:52.714Z,17.7
2017-10-20T10:12:54.103Z,17.5
2017-10-20T10:13:55.498Z,17.3
2017-10-20T10:14:56.883Z,17.2
2017-10-20T10:15:58.261Z,17.2
2017-10-20T10:16:59.661Z,17.0
2017-10-20T10:18:42.021Z,16.8
2017-10-20T10:19:43.400Z,16.6
2017-10-20T10:20:44.771Z,16.5
2017-10-20T10:21:46.151Z,16.4
2017-10-20T10:22:47.530Z,16.2
2017-10-20T10:23:48.907Z,16.0
2017-10-20T10:24:50.287Z,16.0
2017-10-20T10:25:51.664Z,15.9
2017-10-20T10:26:53.040Z,15.9
2017-10-20T10:27:54.416Z,15.8
2017-10-20T10:28:55.797Z,15.8
2017-10-20T10:29:57.175Z,15.8
2017-10-20T10:30:58.552Z,15.7
2017-10-20T10:31:59.934Z,15.8
2017-10-20T10:33:01.310Z,15.8
2017-10-20T10:34:02.692Z,15.9
2017-10-20T10:35:04.068Z,15.8
2017-10-20T10:36:05.472Z,15.8
2017-10-20T10:37:06.850Z,15.9
2017-10-20T10:38:08.259Z,16.0
2017-10-20T10:39:09.670Z,16.0
2017-10-20T10:40:11.188Z,16.2
2017-10-20T10:41:12.800Z,16.4
2017-10-20T10:42:14.414Z,16.5
2017-10-20T10:43:16.139Z,16.5
2017-10-20T10:44:17.536Z,16.4
2017-10-20T10:45:18.946Z,16.5
2017-10-20T10:46:20.362Z,16.4
2017-10-20T10:47:21.753Z,16.6
2017-10-20T10:48:23.138Z,16.6
2017-10-20T10:49:24.515Z,16.6
2017-10-20T10:50:25.891Z,16.6
2017-10-20T10:51:27.261Z,16.6
2017-10-20T10:52:28.649Z,16.8
2017-10-20T10:53:30.055Z,16.8
2017-10-20T10:54:31.418Z,17.1
2017-10-20T10:55:32.788Z,17.9
2017-10-20T10:56:34.181Z,18.5
2017-10-20T10:57:35.554Z,19.3
2017-10-20T10:58:36.933Z,19.9
2017-10-20T10:59:38.313Z,20.4
2017-10-20T11:00:39.708Z,20.7
2017-10-20T11:01:41.140Z,20.9
2017-10-20T11:02:42.599Z,21.3
2017-10-20T11:03:43.994Z,21.5
2017-10-20T11:04:45.411Z,21.7
2017-10-20T11:05:46.794Z,21.7
2017-10-20T11:06:48.178Z,21.7
2017-10-20T11:07:49.581Z,21.4
2017-10-20T11:08:51.179Z,21.7
2017-10-20T11:09:52.553Z,22.2
2017-10-20T11:10:54.028Z,21.9
2017-10-20T11:11:55.504Z,21.9
2017-10-20T11:12:56.907Z,22.1
2017-10-20T11:13:58.310Z,22.1
2017-10-20T11:14:59.810Z,22.2
2017-10-20T11:16:01.285Z,22.4
2017-10-20T11:17:02.693Z,22.6
2017-10-20T11:18:04.105Z,21.8
2017-10-20T11:19:05.626Z,21.8
2017-10-20T11:20:07.397Z,21.6
2017-10-20T11:21:09.529Z,21.8
2017-10-20T11:22:11.076Z,21.9
2017-10-20T11:23:12.633Z,22.1
2017-10-20T11:24:14.095Z,22.0
2017-10-20T11:25:15.573Z,22.1
2017-10-20T11:26:17.104Z,22.1
2017-10-20T11:27:18.620Z,22.2
2017-10-20T11:28:20.136Z,22.0
2017-10-20T11:29:21.832Z,22.2
2017-10-20T11:30:24.008Z,22.4
2017-10-20T11:31:25.974Z,22.4
2017-10-20T11:32:27.528Z,22.3
2017-10-20T11:33:29.344Z,22.1
2017-10-20T11:34:30.875Z,22.3
2017-10-20T11:35:32.757Z,22.7
2017-10-20T11:36:34.366Z,22.9
2017-10-20T11:37:35.906Z,22.8
2017-10-20T11:38:37.393Z,22.8
2017-10-20T11:39:38.978Z,22.8
2017-10-20T11:40:40.438Z,22.8
2017-10-20T11:41:41.896Z,22.8
2017-10-20T11:42:43.782Z,22.5
2017-10-20T11:43:45.655Z,23.1
2017-10-20T11:44:47.400Z,22.3
2017-10-20T11:45:49.253Z,22.6
2017-10-20T11:46:50.785Z,22.6
2017-10-20T11:47:52.309Z,22.8
2017-10-20T11:48:54.062Z,22.9
2017-10-20T11:49:56.399Z,23.2
2017-10-20T11:50:58.122Z,23.4
2017-10-20T11:51:59.639Z,23.7
2017-10-20T11:53:01.320Z,23.9
2017-10-20T11:54:03.488Z,23.8
2017-10-20T11:55:05.027Z,23.9
2017-10-20T11:56:06.818Z,24.2
2017-10-20T11:57:09.716Z,24.8
2017-10-20T11:58:11.322Z,24.8
2017-10-20T11:59:13.869Z,24.8
2017-10-20T12:00:15.292Z,24.8
2017-10-20T12:01:16.815Z,24.3
2017-10-20T12:02:18.700Z,23.5
2017-10-20T12:03:20.181Z,23.6
2017-10-20T12:04:22.385Z,24.2
2017-10-20T12:05:24.626Z,24.7
2017-10-20T12:06:26.449Z,24.8
2017-10-20T12:07:28.273Z,24.7
2017-10-20T12:08:30.027Z,24.1
2017-10-20T12:09:32.163Z,23.9
2017-10-20T12:10:34.061Z,23.7
2017-10-20T12:11:36.730Z,23.7
2017-10-20T12:12:38.638Z,23.6
2017-10-20T12:13:40.302Z,23.9
2017-10-20T12:14:41.781Z,24.0
2017-10-20T12:15:43.276Z,23.5
2017-10-20T12:16:45.189Z,23.5
2017-10-20T12:17:46.735Z,23.7
2017-10-20T12:18:48.240Z,23.7
2017-10-20T12:19:49.714Z,23.4
2017-10-20T12:20:51.405Z,23.1
2017-10-20T12:21:52.978Z,22.1
2017-10-20T12:22:54.499Z,22.5
2017-10-20T12:23:56.066Z,22.5
2017-10-20T12:24:57.496Z,22.8
2017-10-20T12:25:58.977Z,22.7
2017-10-20T12:27:00.745Z,23.1
2017-10-20T12:28:02.250Z,23.2
2017-10-20T12:29:03.891Z,23.2
2017-10-20T12:30:05.694Z,22.9
2017-10-20T12:31:07.529Z,22.6
2017-10-20T12:32:09.042Z,22.4
2017-10-20T12:33:10.687Z,21.9
2017-10-20T12:34:12.886Z,22.0
2017-10-20T12:35:15.034Z,21.8
2017-10-20T12:36:17.192Z,22.3
2017-10-20T12:37:18.851Z,22.1
2017-10-20T12:38:20.388Z,22.5
2017-10-20T12:39:21.857Z,22.9
2017-10-20T12:40:23.325Z,22.8
2017-10-20T12:41:25.587Z,23.2
2017-10-20T12:42:27.159Z,23.6
2017-10-20T12:43:28.621Z,22.7
2017-10-20T12:44:30.854Z,22.0
2017-10-20T12:45:32.336Z,22.2
2017-10-20T12:46:33.882Z,22.2
2017-10-20T12:47:36.097Z,22.2
2017-10-20T12:48:38.013Z,21.7
2017-10-20T12:49:39.570Z,21.5
2017-10-20T12:50:41.080Z,21.7
2017-10-20T12:51:43.235Z,21.9
2017-10-20T12:52:45.485Z,22.5
2017-10-20T12:53:47.636Z,22.0
2017-10-20T12:54:49.834Z,21.8
2017-10-20T12:55:51.392Z,21.6
2017-10-20T12:56:53.511Z,21.4
2017-10-20T12:57:55.316Z,21.8
2017-10-20T12:58:57.672Z,21.9
2017-10-20T12:59:59.774Z,22.2
2017-10-20T13:01:02.107Z,22.4
2017-10-20T13:02:04.277Z,22.4
2017-10-20T13:03:06.422Z,22.6
2017-10-20T13:04:08.523Z,23.0
2017-10-20T13:05:10.742Z,23.1
2017-10-20T13:06:12.671Z,23.2
2017-10-20T13:07:14.921Z,23.2
2017-10-20T13:08:17.049Z,22.7
2017-10-20T13:09:19.196Z,22.3
2017-10-20T13:10:20.673Z,21.8
2017-10-20T13:11:22.866Z,21.7
2017-10-20T13:12:25.011Z,21.8
2017-10-20T13:13:26.544Z,22.1
2017-10-20T13:14:28.255Z,22.0
2017-10-20T13:15:30.493Z,22.0
2017-10-20T13:16:31.973Z,21.6
2017-10-20T13:17:33.817Z,21.8
2017-10-20T13:18:35.774Z,21.8
2017-10-20T13:19:37.281Z,21.6
2017-10-20T13:20:38.768Z,21.3
2017-10-20T13:21:40.215Z,21.0
2017-10-20T13:22:41.765Z,21.0
2017-10-20T13:23:43.308Z,21.2
2017-10-20T13:24:45.353Z,21.5
2017-10-20T13:25:46.863Z,21.8
2017-10-20T13:26:48.678Z,22.1
2017-10-20T13:27:50.390Z,21.5
2017-10-20T13:28:52.249Z,21.1
2017-10-20T13:29:53.710Z,20.8
2017-10-20T13:30:55.155Z,20.6
2017-10-20T13:31:57.192Z,20.4
2017-10-20T13:32:59.397Z,20.6
2017-10-20T13:34:00.850Z,20.6
2017-10-20T13:35:02.351Z,20.7
2017-10-20T13:36:04.571Z,20.8
2017-10-20T13:37:06.118Z,21.0
2017-10-20T13:38:08.224Z,20.8
2017-10-20T13:39:10.342Z,20.5
2017-10-20T13:40:12.598Z,20.3
2017-10-20T13:41:14.101Z,20.2
2017-10-20T13:42:16.327Z,20.0
2017-10-20T13:43:18.456Z,19.9